sensor_id;sensor_type;location;lat;lon;timestamp;pressure;altitude;pressure_sealevel;temperature;humidity
62524;BME280;53689;56.878;60.672;2023-05-24T00:00:09;99297.09;;;26.08;23.33
62524;BME280;53689;56.878;60.672;2023-05-24T00:02:36;99298.75;;;26.09;22.90
62524;BME280;53689;56.878;60.672;2023-05-24T00:05:03;99304.38;;;26.07;22.60
62524;BME280;53689;56.878;60.672;2023-05-24T00:07:31;99297.50;;;26.04;22.69
62524;BME280;53689;56.878;60.672;2023-05-24T00:09:58;99308.38;;;26.11;22.78
62524;BME280;53689;56.878;60.672;2023-05-24T00:12:25;99298.31;;;26.05;23.29
62524;BME280;53689;56.878;60.672;2023-05-24T00:14:52;99303.94;;;26.03;23.42
62524;BME280;53689;56.878;60.672;2023-05-24T00:17:21;99302.06;;;26.04;23.67
62524;BME280;53689;56.878;60.672;2023-05-24T00:19:48;99306.25;;;26.00;23.56
62524;BME280;53689;56.878;60.672;2023-05-24T00:22:15;99303.72;;;25.98;22.96
62524;BME280;53689;56.878;60.672;2023-05-24T00:24:42;99305.38;;;25.99;23.53
62524;BME280;53689;56.878;60.672;2023-05-24T00:27:10;99299.34;;;25.97;23.10
62524;BME280;53689;56.878;60.672;2023-05-24T00:29:37;99300.41;;;26.03;23.27
62524;BME280;53689;56.878;60.672;2023-05-24T00:32:04;99303.72;;;25.98;23.84
62524;BME280;53689;56.878;60.672;2023-05-24T00:34:33;99301.44;;;26.02;24.08
62524;BME280;53689;56.878;60.672;2023-05-24T00:37:00;99302.06;;;26.04;23.23
62524;BME280;53689;56.878;60.672;2023-05-24T00:39:28;99302.88;;;25.98;23.78
62524;BME280;53689;56.878;60.672;2023-05-24T00:41:55;99297.50;;;26.11;23.83
62524;BME280;53689;56.878;60.672;2023-05-24T00:44:22;99303.22;;;26.23;22.73
62524;BME280;53689;56.878;60.672;2023-05-24T00:46:50;99302.66;;;26.55;22.53
62524;BME280;53689;56.878;60.672;2023-05-24T00:49:17;99306.47;;;26.74;22.82
62524;BME280;53689;56.878;60.672;2023-05-24T00:51:46;99302.03;;;26.39;23.01
62524;BME280;53689;56.878;60.672;2023-05-24T00:54:14;99302.13;;;26.17;23.24
62524;BME280;53689;56.878;60.672;2023-05-24T00:56:42;99299.63;;;26.16;23.71
62524;BME280;53689;56.878;60.672;2023-05-24T00:59:09;99298.56;;;26.17;22.64
62524;BME280;53689;56.878;60.672;2023-05-24T01:01:37;99301.72;;;25.72;23.71
62524;BME280;53689;56.878;60.672;2023-05-24T01:04:04;99299.44;;;25.47;24.42
62524;BME280;53689;56.878;60.672;2023-05-24T01:06:31;99302.16;;;25.47;24.76
62524;BME280;53689;56.878;60.672;2023-05-24T01:09:12;99304.22;;;25.45;24.18
62524;BME280;53689;56.878;60.672;2023-05-24T01:11:47;99304.38;;;25.37;24.68
62524;BME280;53689;56.878;60.672;2023-05-24T01:14:17;99305.41;;;25.35;24.24
62524;BME280;53689;56.878;60.672;2023-05-24T01:16:50;99301.81;;;25.28;24.97
62524;BME280;53689;56.878;60.672;2023-05-24T01:19:26;99302.06;;;25.33;24.30
62524;BME280;53689;56.878;60.672;2023-05-24T01:22:07;99291.22;;;25.33;25.09
62524;BME280;53689;56.878;60.672;2023-05-24T01:24:43;99297.00;;;25.24;24.63
62524;BME280;53689;56.878;60.672;2023-05-24T01:27:16;99292.59;;;25.23;24.20
62524;BME280;53689;56.878;60.672;2023-05-24T01:29:44;99292.25;;;25.32;23.61
62524;BME280;53689;56.878;60.672;2023-05-24T01:32:11;99298.47;;;25.26;24.19
62524;BME280;53689;56.878;60.672;2023-05-24T01:34:39;99292.13;;;25.12;24.65
62524;BME280;53689;56.878;60.672;2023-05-24T01:37:07;99298.22;;;25.21;24.81
62524;BME280;53689;56.878;60.672;2023-05-24T01:39:35;99300.19;;;24.84;25.08
62524;BME280;53689;56.878;60.672;2023-05-24T01:42:06;99296.50;;;24.70;25.66
62524;BME280;53689;56.878;60.672;2023-05-24T01:44:36;99294.75;;;24.62;25.07
62524;BME280;53689;56.878;60.672;2023-05-24T01:47:10;99302.88;;;24.62;24.83
62524;BME280;53689;56.878;60.672;2023-05-24T01:49:39;99296.22;;;24.79;24.70
62524;BME280;53689;56.878;60.672;2023-05-24T01:52:10;99300.03;;;24.48;25.63
62524;BME280;53689;56.878;60.672;2023-05-24T01:54:42;99303.00;;;24.75;24.88
62524;BME280;53689;56.878;60.672;2023-05-24T01:57:10;99300.88;;;24.49;25.31
62524;BME280;53689;56.878;60.672;2023-05-24T01:59:40;99303.66;;;24.77;24.74
62524;BME280;53689;56.878;60.672;2023-05-24T02:02:09;99301.31;;;24.52;25.05
62524;BME280;53689;56.878;60.672;2023-05-24T02:04:36;99299.66;;;24.73;24.34
62524;BME280;53689;56.878;60.672;2023-05-24T02:07:03;99297.75;;;24.67;24.49
62524;BME280;53689;56.878;60.672;2023-05-24T02:09:31;99295.41;;;24.64;24.74
62524;BME280;53689;56.878;60.672;2023-05-24T02:11:58;99295.16;;;24.59;24.64
62524;BME280;53689;56.878;60.672;2023-05-24T02:14:25;99290.13;;;24.77;24.63
62524;BME280;53689;56.878;60.672;2023-05-24T02:16:54;99294.13;;;24.82;23.85
62524;BME280;53689;56.878;60.672;2023-05-24T02:19:22;99297.03;;;24.80;24.43
62524;BME280;53689;56.878;60.672;2023-05-24T02:21:49;99296.44;;;25.06;23.73
62524;BME280;53689;56.878;60.672;2023-05-24T02:24:17;99300.44;;;25.11;23.69
62524;BME280;53689;56.878;60.672;2023-05-24T02:26:44;99297.56;;;24.90;24.06
62524;BME280;53689;56.878;60.672;2023-05-24T02:29:11;99301.75;;;24.93;24.33
62524;BME280;53689;56.878;60.672;2023-05-24T02:31:38;99295.44;;;24.86;24.12
62524;BME280;53689;56.878;60.672;2023-05-24T02:34:07;99297.13;;;24.87;24.25
62524;BME280;53689;56.878;60.672;2023-05-24T02:36:34;99293.16;;;24.89;24.36
62524;BME280;53689;56.878;60.672;2023-05-24T02:39:02;99287.75;;;24.89;23.73
62524;BME280;53689;56.878;60.672;2023-05-24T02:41:29;99291.41;;;25.03;24.43
62524;BME280;53689;56.878;60.672;2023-05-24T02:43:57;99294.19;;;25.10;24.33
62524;BME280;53689;56.878;60.672;2023-05-24T02:46:24;99285.97;;;25.03;24.21
62524;BME280;53689;56.878;60.672;2023-05-24T02:48:51;99287.06;;;24.80;25.37
62524;BME280;53689;56.878;60.672;2023-05-24T02:51:20;99293.91;;;25.05;23.94
62524;BME280;53689;56.878;60.672;2023-05-24T02:53:48;99288.91;;;25.02;24.75
62524;BME280;53689;56.878;60.672;2023-05-24T02:56:15;99288.78;;;24.88;24.23
62524;BME280;53689;56.878;60.672;2023-05-24T02:58:42;99292.69;;;25.07;24.50
62524;BME280;53689;56.878;60.672;2023-05-24T03:01:10;99296.03;;;25.10;23.60
62524;BME280;53689;56.878;60.672;2023-05-24T03:03:37;99295.00;;;25.11;23.80
62524;BME280;53689;56.878;60.672;2023-05-24T03:06:05;99285.81;;;25.33;24.15
62524;BME280;53689;56.878;60.672;2023-05-24T03:08:34;99297.25;;;25.29;24.29
62524;BME280;53689;56.878;60.672;2023-05-24T03:11:01;99295.03;;;25.39;24.13
62524;BME280;53689;56.878;60.672;2023-05-24T03:13:29;99289.75;;;25.31;24.10
62524;BME280;53689;56.878;60.672;2023-05-24T03:15:56;99293.94;;;25.33;23.38
62524;BME280;53689;56.878;60.672;2023-05-24T03:18:24;99295.56;;;25.56;23.92
62524;BME280;53689;56.878;60.672;2023-05-24T03:20:52;99291.66;;;25.37;23.45
62524;BME280;53689;56.878;60.672;2023-05-24T03:23:20;99293.38;;;25.45;23.39
62524;BME280;53689;56.878;60.672;2023-05-24T03:25:49;99296.88;;;25.39;23.90
62524;BME280;53689;56.878;60.672;2023-05-24T03:28:16;99293.47;;;25.23;23.87
62524;BME280;53689;56.878;60.672;2023-05-24T03:30:43;99284.66;;;24.92;24.79
62524;BME280;53689;56.878;60.672;2023-05-24T03:33:11;99296.22;;;25.08;25.20
62524;BME280;53689;56.878;60.672;2023-05-24T03:35:39;99293.19;;;25.18;24.97
62524;BME280;53689;56.878;60.672;2023-05-24T03:38:07;99294.09;;;25.25;24.50
62524;BME280;53689;56.878;60.672;2023-05-24T03:40:37;99292.44;;;25.02;25.12
62524;BME280;53689;56.878;60.672;2023-05-24T03:43:18;99292.44;;;25.02;24.96
62524;BME280;53689;56.878;60.672;2023-05-24T03:45:58;99300.78;;;25.01;24.95
62524;BME280;53689;56.878;60.672;2023-05-24T03:48:26;99295.28;;;25.16;23.38
62524;BME280;53689;56.878;60.672;2023-05-24T03:50:53;99295.81;;;25.61;24.14
62524;BME280;53689;56.878;60.672;2023-05-24T03:53:20;99299.00;;;25.72;23.18
62524;BME280;53689;56.878;60.672;2023-05-24T03:55:49;99295.16;;;25.95;23.34
62524;BME280;53689;56.878;60.672;2023-05-24T03:58:16;99294.50;;;25.93;23.65
62524;BME280;53689;56.878;60.672;2023-05-24T04:00:45;99297.00;;;25.94;23.15
62524;BME280;53689;56.878;60.672;2023-05-24T04:03:13;99299.09;;;25.92;23.34
62524;BME280;53689;56.878;60.672;2023-05-24T04:05:41;99298.88;;;25.87;23.53
62524;BME280;53689;56.878;60.672;2023-05-24T04:08:09;99298.66;;;25.88;23.31
62524;BME280;53689;56.878;60.672;2023-05-24T04:10:37;99298.28;;;25.98;22.95
62524;BME280;53689;56.878;60.672;2023-05-24T04:13:04;99298.28;;;25.98;23.05
62524;BME280;53689;56.878;60.672;2023-05-24T04:15:35;99305.19;;;26.01;23.60
62524;BME280;53689;56.878;60.672;2023-05-24T04:18:03;99295.97;;;25.53;24.59
62524;BME280;53689;56.878;60.672;2023-05-24T04:20:33;99301.63;;;25.58;24.05
62524;BME280;53689;56.878;60.672;2023-05-24T04:23:01;99301.03;;;25.34;24.36
62524;BME280;53689;56.878;60.672;2023-05-24T04:25:29;99301.03;;;25.34;25.08
62524;BME280;53689;56.878;60.672;2023-05-24T04:27:56;99298.59;;;25.46;23.68
62524;BME280;53689;56.878;60.672;2023-05-24T04:30:23;99300.41;;;26.03;23.43
62524;BME280;53689;56.878;60.672;2023-05-24T04:32:51;99290.88;;;25.72;23.23
62524;BME280;53689;56.878;60.672;2023-05-24T04:35:19;99297.16;;;25.79;24.20
62524;BME280;53689;56.878;60.672;2023-05-24T04:37:48;99301.53;;;25.45;23.76
62524;BME280;53689;56.878;60.672;2023-05-24T04:40:17;99298.78;;;26.15;22.82
62524;BME280;53689;56.878;60.672;2023-05-24T04:42:45;99302.72;;;26.62;22.15
62524;BME280;53689;56.878;60.672;2023-05-24T04:45:12;99292.06;;;26.80;22.40
62524;BME280;53689;56.878;60.672;2023-05-24T04:47:40;99297.66;;;26.52;22.08
62524;BME280;53689;56.878;60.672;2023-05-24T04:50:08;99298.50;;;26.59;21.84
62524;BME280;53689;56.878;60.672;2023-05-24T04:52:36;99298.31;;;26.74;22.24
62524;BME280;53689;56.878;60.672;2023-05-24T04:55:04;99297.66;;;26.52;22.33
62524;BME280;53689;56.878;60.672;2023-05-24T04:57:31;99296.03;;;26.71;21.48
62524;BME280;53689;56.878;60.672;2023-05-24T04:59:58;99291.38;;;26.44;22.16
62524;BME280;53689;56.878;60.672;2023-05-24T05:02:25;99288.81;;;26.23;23.05
62524;BME280;53689;56.878;60.672;2023-05-24T05:04:53;99295.91;;;26.24;23.22
62524;BME280;53689;56.878;60.672;2023-05-24T05:07:20;99293.09;;;26.59;21.63
62524;BME280;53689;56.878;60.672;2023-05-24T05:09:48;99301.63;;;26.49;22.21
62524;BME280;53689;56.878;60.672;2023-05-24T05:12:16;99292.22;;;26.52;21.65
62524;BME280;53689;56.878;60.672;2023-05-24T05:14:43;99290.56;;;26.57;21.63
62524;BME280;53689;56.878;60.672;2023-05-24T05:17:10;99294.13;;;26.71;21.50
62524;BME280;53689;56.878;60.672;2023-05-24T05:19:37;99291.56;;;26.36;22.40
62524;BME280;53689;56.878;60.672;2023-05-24T05:22:07;99292.16;;;26.25;22.76
62524;BME280;53689;56.878;60.672;2023-05-24T05:24:34;99293.00;;;26.32;21.92
62524;BME280;53689;56.878;60.672;2023-05-24T05:27:03;99296.84;;;26.71;21.96
62524;BME280;53689;56.878;60.672;2023-05-24T05:29:31;99284.59;;;27.09;20.83
62524;BME280;53689;56.878;60.672;2023-05-24T05:31:58;99295.19;;;26.57;21.68
62524;BME280;53689;56.878;60.672;2023-05-24T05:34:26;99295.13;;;26.43;22.19
62524;BME280;53689;56.878;60.672;2023-05-24T05:36:53;99290.97;;;26.48;22.14
62524;BME280;53689;56.878;60.672;2023-05-24T05:39:20;99284.13;;;26.79;21.48
62524;BME280;53689;56.878;60.672;2023-05-24T05:41:47;99288.13;;;27.10;21.26
62524;BME280;53689;56.878;60.672;2023-05-24T05:44:16;99280.19;;;26.88;21.64
62524;BME280;53689;56.878;60.672;2023-05-24T05:46:44;99282.69;;;27.17;21.07
62524;BME280;53689;56.878;60.672;2023-05-24T05:49:11;99280.19;;;26.88;21.44
62524;BME280;53689;56.878;60.672;2023-05-24T05:51:38;99283.50;;;27.24;21.13
62524;BME280;53689;56.878;60.672;2023-05-24T05:54:05;99281.44;;;27.19;20.73
62524;BME280;53689;56.878;60.672;2023-05-24T05:56:32;99280.19;;;27.22;20.63
62524;BME280;53689;56.878;60.672;2023-05-24T05:59:00;99279.78;;;27.05;21.36
62524;BME280;53689;56.878;60.672;2023-05-24T06:01:29;99279.78;;;27.05;20.54
62524;BME280;53689;56.878;60.672;2023-05-24T06:03:56;99270.50;;;27.46;20.53
62524;BME280;53689;56.878;60.672;2023-05-24T06:06:23;99280.13;;;27.49;20.49
62524;BME280;53689;56.878;60.672;2023-05-24T06:08:50;99275.34;;;27.44;20.48
62524;BME280;53689;56.878;60.672;2023-05-24T06:11:17;99275.53;;;27.49;20.06
62524;BME280;53689;56.878;60.672;2023-05-24T06:13:44;99269.03;;;27.43;20.51
62524;BME280;53689;56.878;60.672;2023-05-24T06:16:12;99267.84;;;27.19;20.37
62524;BME280;53689;56.878;60.672;2023-05-24T06:18:40;99261.13;;;27.42;20.40
62524;BME280;53689;56.878;60.672;2023-05-24T06:21:19;99264.06;;;27.34;20.69
62524;BME280;53689;56.878;60.672;2023-05-24T06:23:46;99266.72;;;27.54;20.29
62524;BME280;53689;56.878;60.672;2023-05-24T06:26:13;99269.88;;;27.71;20.18
62524;BME280;53689;56.878;60.672;2023-05-24T06:28:40;99262.34;;;27.53;19.62
62524;BME280;53689;56.878;60.672;2023-05-24T06:31:08;99269.72;;;27.19;20.18
62524;BME280;53689;56.878;60.672;2023-05-24T06:33:35;99265.31;;;27.38;19.97
62524;BME280;53689;56.878;60.672;2023-05-24T06:36:05;99259.63;;;27.53;19.83
62524;BME280;53689;56.878;60.672;2023-05-24T06:38:33;99263.53;;;27.77;19.81
62524;BME280;53689;56.878;60.672;2023-05-24T06:41:00;99264.59;;;27.76;19.46
62524;BME280;53689;56.878;60.672;2023-05-24T06:43:27;99259.25;;;27.56;19.24
62524;BME280;53689;56.878;60.672;2023-05-24T06:45:55;99259.69;;;27.19;19.91
62524;BME280;53689;56.878;60.672;2023-05-24T06:48:22;99255.72;;;27.15;20.33
62524;BME280;53689;56.878;60.672;2023-05-24T06:50:50;99249.00;;;27.31;19.70
62524;BME280;53689;56.878;60.672;2023-05-24T06:53:19;99254.25;;;27.19;19.50
62524;BME280;53689;56.878;60.672;2023-05-24T06:55:46;99251.56;;;27.06;19.99
62524;BME280;53689;56.878;60.672;2023-05-24T06:58:13;99249.63;;;27.33;19.26
62524;BME280;53689;56.878;60.672;2023-05-24T07:00:40;99242.00;;;27.76;18.15
62524;BME280;53689;56.878;60.672;2023-05-24T07:03:08;99238.44;;;27.75;18.54
62524;BME280;53689;56.878;60.672;2023-05-24T07:05:35;99246.13;;;28.37;18.18
62524;BME280;53689;56.878;60.672;2023-05-24T07:08:03;99235.16;;;28.05;18.16
62524;BME280;53689;56.878;60.672;2023-05-24T07:10:31;99243.63;;;28.36;17.95
62524;BME280;53689;56.878;60.672;2023-05-24T07:13:00;99240.53;;;28.58;17.72
62524;BME280;53689;56.878;60.672;2023-05-24T07:15:28;99239.88;;;28.30;17.93
62524;BME280;53689;56.878;60.672;2023-05-24T07:17:55;99237.44;;;28.15;17.64
62524;BME280;53689;56.878;60.672;2023-05-24T07:20:22;99236.81;;;28.20;18.04
62524;BME280;53689;56.878;60.672;2023-05-24T07:22:50;99235.75;;;28.21;17.71
62524;BME280;53689;56.878;60.672;2023-05-24T07:25:17;99231.78;;;28.10;17.79
62524;BME280;53689;56.878;60.672;2023-05-24T07:27:45;99237.19;;;28.23;17.80
62524;BME280;53689;56.878;60.672;2023-05-24T07:30:13;99227.22;;;28.04;17.72
62524;BME280;53689;56.878;60.672;2023-05-24T07:32:57;99228.78;;;28.32;17.15
62524;BME280;53689;56.878;60.672;2023-05-24T07:35:24;99229.72;;;28.44;17.17
62524;BME280;53689;56.878;60.672;2023-05-24T07:37:53;99232.13;;;28.59;16.80
62524;BME280;53689;56.878;60.672;2023-05-24T07:40:20;99226.66;;;28.34;17.42
62524;BME280;53689;56.878;60.672;2023-05-24T07:42:49;99232.88;;;28.73;16.65
62524;BME280;53689;56.878;60.672;2023-05-24T07:45:18;99236.94;;;28.89;16.22
62524;BME280;53689;56.878;60.672;2023-05-24T07:47:45;99231.47;;;28.64;16.62
62524;BME280;53689;56.878;60.672;2023-05-24T07:50:12;99229.16;;;28.35;16.81
62524;BME280;53689;56.878;60.672;2023-05-24T07:52:39;99222.16;;;28.07;17.00
62524;BME280;53689;56.878;60.672;2023-05-24T07:55:07;99223.69;;;28.35;16.48
62524;BME280;53689;56.878;60.672;2023-05-24T07:57:34;99213.75;;;28.22;16.36
62524;BME280;53689;56.878;60.672;2023-05-24T08:00:03;99215.28;;;28.05;16.77
62524;BME280;53689;56.878;60.672;2023-05-24T08:02:37;99213.34;;;28.19;16.94
62524;BME280;53689;56.878;60.672;2023-05-24T08:05:04;99215.59;;;28.54;15.77
62524;BME280;53689;56.878;60.672;2023-05-24T08:07:32;99215.09;;;28.00;18.50
62524;BME280;53689;56.878;60.672;2023-05-24T08:09:59;99215.59;;;27.90;17.52
62524;BME280;53689;56.878;60.672;2023-05-24T08:12:26;99200.41;;;27.62;17.73
62524;BME280;53689;56.878;60.672;2023-05-24T08:14:54;99203.75;;;27.50;17.87
62524;BME280;53689;56.878;60.672;2023-05-24T08:17:23;99207.16;;;27.39;17.90
62524;BME280;53689;56.878;60.672;2023-05-24T08:19:50;99209.63;;;27.47;17.15
62524;BME280;53689;56.878;60.672;2023-05-24T08:22:17;99210.91;;;27.97;16.86
62524;BME280;53689;56.878;60.672;2023-05-24T08:24:44;99200.47;;;27.94;16.62
62524;BME280;53689;56.878;60.672;2023-05-24T08:27:12;99205.09;;;27.87;16.87
62524;BME280;53689;56.878;60.672;2023-05-24T08:29:40;99199.88;;;27.92;16.90
62524;BME280;53689;56.878;60.672;2023-05-24T08:32:07;99199.13;;;28.10;17.04
62524;BME280;53689;56.878;60.672;2023-05-24T08:34:36;99194.53;;;28.68;16.52
62524;BME280;53689;56.878;60.672;2023-05-24T08:37:04;99190.50;;;28.52;16.54
62524;BME280;53689;56.878;60.672;2023-05-24T08:39:31;99194.47;;;28.24;16.92
62524;BME280;53689;56.878;60.672;2023-05-24T08:41:58;99197.03;;;28.19;16.84
62524;BME280;53689;56.878;60.672;2023-05-24T08:44:35;99201.81;;;27.78;17.41
62524;BME280;53689;56.878;60.672;2023-05-24T08:47:06;99190.88;;;27.84;17.51
62524;BME280;53689;56.878;60.672;2023-05-24T08:49:35;99194.16;;;28.00;17.35
62524;BME280;53689;56.878;60.672;2023-05-24T08:52:03;99193.63;;;28.23;17.22
62524;BME280;53689;56.878;60.672;2023-05-24T08:54:31;99193.47;;;28.11;17.03
62524;BME280;53689;56.878;60.672;2023-05-24T08:56:59;99199.25;;;27.83;17.22
62524;BME280;53689;56.878;60.672;2023-05-24T08:59:28;99178.66;;;27.55;17.58
62524;BME280;53689;56.878;60.672;2023-05-24T09:01:55;99175.34;;;27.46;17.55
62524;BME280;53689;56.878;60.672;2023-05-24T09:04:23;99174.66;;;27.64;17.32
62524;BME280;53689;56.878;60.672;2023-05-24T09:06:54;99179.19;;;27.84;17.18
62524;BME280;53689;56.878;60.672;2023-05-24T09:09:23;99181.63;;;27.40;17.09
62524;BME280;53689;56.878;60.672;2023-05-24T09:11:52;99179.53;;;27.42;17.49
62524;BME280;53689;56.878;60.672;2023-05-24T09:14:22;99175.56;;;27.38;17.18
62524;BME280;53689;56.878;60.672;2023-05-24T09:16:50;99173.75;;;27.77;17.10
62524;BME280;53689;56.878;60.672;2023-05-24T09:19:17;99167.69;;;28.14;16.70
62524;BME280;53689;56.878;60.672;2023-05-24T09:21:46;99169.16;;;28.49;16.50
62524;BME280;53689;56.878;60.672;2023-05-24T09:24:15;99172.25;;;28.27;16.62
62524;BME280;53689;56.878;60.672;2023-05-24T09:26:42;99165.13;;;28.77;16.35
62524;BME280;53689;56.878;60.672;2023-05-24T09:29:09;99167.63;;;28.78;16.41
62524;BME280;53689;56.878;60.672;2023-05-24T09:31:37;99158.25;;;28.49;16.53
62524;BME280;53689;56.878;60.672;2023-05-24T09:34:08;99156.50;;;28.80;16.47
62524;BME280;53689;56.878;60.672;2023-05-24T09:36:35;99156.38;;;28.75;16.23
62524;BME280;53689;56.878;60.672;2023-05-24T09:39:06;99144.38;;;28.25;16.86
62524;BME280;53689;56.878;60.672;2023-05-24T09:41:35;99152.53;;;28.32;16.72
62524;BME280;53689;56.878;60.672;2023-05-24T09:44:03;99152.13;;;28.79;16.63
62524;BME280;53689;56.878;60.672;2023-05-24T09:46:34;99146.81;;;28.65;16.77
62524;BME280;53689;56.878;60.672;2023-05-24T09:49:01;99141.69;;;28.76;16.30
62524;BME280;53689;56.878;60.672;2023-05-24T09:51:29;99142.38;;;28.46;16.73
62524;BME280;53689;56.878;60.672;2023-05-24T09:53:56;99139.34;;;28.54;16.60
62524;BME280;53689;56.878;60.672;2023-05-24T09:56:24;99141.19;;;29.04;16.22
62524;BME280;53689;56.878;60.672;2023-05-24T09:58:53;99131.84;;;28.75;16.29
62524;BME280;53689;56.878;60.672;2023-05-24T10:01:22;99135.59;;;28.55;16.75
62524;BME280;53689;56.878;60.672;2023-05-24T10:03:53;99136.19;;;28.32;16.71
62524;BME280;53689;56.878;60.672;2023-05-24T10:06:22;99126.25;;;28.19;16.75
62524;BME280;53689;56.878;60.672;2023-05-24T10:08:49;99135.06;;;28.07;16.98
62524;BME280;53689;56.878;60.672;2023-05-24T10:11:18;99126.88;;;28.14;17.53
62524;BME280;53689;56.878;60.672;2023-05-24T10:13:46;99129.34;;;28.73;16.38
62524;BME280;53689;56.878;60.672;2023-05-24T10:16:15;99132.66;;;28.75;16.27
62524;BME280;53689;56.878;60.672;2023-05-24T10:18:43;99146.56;;;28.67;16.43
62524;BME280;53689;56.878;60.672;2023-05-24T10:21:10;99128.72;;;28.20;16.88
62524;BME280;53689;56.878;60.672;2023-05-24T10:23:38;99122.28;;;28.40;16.62
62524;BME280;53689;56.878;60.672;2023-05-24T10:26:09;99126.69;;;28.41;16.60
62524;BME280;53689;56.878;60.672;2023-05-24T10:28:39;99128.75;;;28.46;16.40
62524;BME280;53689;56.878;60.672;2023-05-24T10:31:09;99126.13;;;28.32;16.46
62524;BME280;53689;56.878;60.672;2023-05-24T10:33:38;99124.28;;;27.94;16.55
62524;BME280;53689;56.878;60.672;2023-05-24T10:36:08;99124.78;;;27.84;17.00
62524;BME280;53689;56.878;60.672;2023-05-24T10:38:36;99121.50;;;28.01;16.83
62524;BME280;53689;56.878;60.672;2023-05-24T10:41:04;99123.38;;;28.58;16.56
62524;BME280;53689;56.878;60.672;2023-05-24T10:43:32;99114.91;;;28.22;16.75
62524;BME280;53689;56.878;60.672;2023-05-24T10:46:01;99124.41;;;28.38;16.64
62524;BME280;53689;56.878;60.672;2023-05-24T10:51:34;99112.91;;;28.80;16.14
62524;BME280;53689;56.878;60.672;2023-05-24T10:54:14;99108.44;;;28.42;16.93
62524;BME280;53689;56.878;60.672;2023-05-24T10:56:46;99109.06;;;28.44;17.01
62524;BME280;53689;56.878;60.672;2023-05-24T10:59:23;99101.59;;;28.58;16.61
62524;BME280;53689;56.878;60.672;2023-05-24T11:01:53;99107.66;;;28.78;16.20
62524;BME280;53689;56.878;60.672;2023-05-24T11:04:21;99103.94;;;28.54;16.38
62524;BME280;53689;56.878;60.672;2023-05-24T11:06:53;99100.91;;;28.88;16.33
62524;BME280;53689;56.878;60.672;2023-05-24T11:09:21;99094.72;;;28.99;16.24
62524;BME280;53689;56.878;60.672;2023-05-24T11:11:49;99103.03;;;28.86;16.25
62524;BME280;53689;56.878;60.672;2023-05-24T11:14:18;99102.91;;;28.55;16.66
62524;BME280;53689;56.878;60.672;2023-05-24T11:16:45;99101.53;;;28.46;16.43
62524;BME280;53689;56.878;60.672;2023-05-24T11:19:15;99097.63;;;28.35;16.63
62524;BME280;53689;56.878;60.672;2023-05-24T11:21:44;99101.34;;;28.41;16.62
62524;BME280;53689;56.878;60.672;2023-05-24T11:24:15;99089.78;;;28.45;16.33
62524;BME280;53689;56.878;60.672;2023-05-24T11:26:43;99087.19;;;28.32;16.43
62524;BME280;53689;56.878;60.672;2023-05-24T11:29:14;99080.97;;;28.24;16.95
62524;BME280;53689;56.878;60.672;2023-05-24T11:31:46;99079.75;;;28.14;16.34
62524;BME280;53689;56.878;60.672;2023-05-24T11:34:14;99082.50;;;28.83;15.91
62524;BME280;53689;56.878;60.672;2023-05-24T11:36:41;99083.97;;;28.60;16.33
62524;BME280;53689;56.878;60.672;2023-05-24T11:39:10;99077.75;;;28.53;16.39
62524;BME280;53689;56.878;60.672;2023-05-24T11:41:39;99078.66;;;28.47;16.62
62524;BME280;53689;56.878;60.672;2023-05-24T11:44:07;99073.91;;;28.86;16.10
62524;BME280;53689;56.878;60.672;2023-05-24T11:46:34;99070.84;;;29.62;15.76
62524;BME280;53689;56.878;60.672;2023-05-24T11:49:01;99076.47;;;29.68;15.59
62524;BME280;53689;56.878;60.672;2023-05-24T11:51:30;99076.72;;;29.29;15.95
62524;BME280;53689;56.878;60.672;2023-05-24T11:53:59;99077.97;;;29.14;16.04
62524;BME280;53689;56.878;60.672;2023-05-24T11:56:27;99072.34;;;29.28;15.84
62524;BME280;53689;56.878;60.672;2023-05-24T11:59:08;99071.75;;;29.07;16.12
62524;BME280;53689;56.878;60.672;2023-05-24T12:01:38;99072.28;;;28.97;16.26
62524;BME280;53689;56.878;60.672;2023-05-24T12:04:05;99066.63;;;28.99;16.17
62524;BME280;53689;56.878;60.672;2023-05-24T12:06:34;99067.50;;;28.92;16.24
62524;BME280;53689;56.878;60.672;2023-05-24T12:09:01;99067.94;;;29.45;15.99
62524;BME280;53689;56.878;60.672;2023-05-24T12:11:28;99063.69;;;29.92;15.90
62524;BME280;53689;56.878;60.672;2023-05-24T12:13:56;99073.88;;;29.24;16.10
62524;BME280;53689;56.878;60.672;2023-05-24T12:16:25;99067.75;;;28.91;16.53
62524;BME280;53689;56.878;60.672;2023-05-24T12:18:54;99072.63;;;28.89;16.41
62524;BME280;53689;56.878;60.672;2023-05-24T12:21:32;99069.47;;;29.41;15.88
62524;BME280;53689;56.878;60.672;2023-05-24T12:24:03;99066.78;;;29.04;16.18
62524;BME280;53689;56.878;60.672;2023-05-24T12:26:33;99057.97;;;28.83;16.81
62524;BME280;53689;56.878;60.672;2023-05-24T12:29:00;99057.03;;;28.71;17.23
62524;BME280;53689;56.878;60.672;2023-05-24T12:31:30;99060.69;;;29.20;16.26
62524;BME280;53689;56.878;60.672;2023-05-24T12:33:59;99064.16;;;29.46;16.00
62524;BME280;53689;56.878;60.672;2023-05-24T12:36:27;99058.91;;;28.96;16.07
62524;BME280;53689;56.878;60.672;2023-05-24T12:38:56;99066.91;;;28.90;16.54
62524;BME280;53689;56.878;60.672;2023-05-24T12:41:24;99055.41;;;29.07;16.46
62524;BME280;53689;56.878;60.672;2023-05-24T12:43:51;99057.78;;;29.34;16.12
62524;BME280;53689;56.878;60.672;2023-05-24T12:46:20;99057.19;;;29.32;16.08
62524;BME280;53689;56.878;60.672;2023-05-24T12:48:50;99065.13;;;29.03;16.39
62524;BME280;53689;56.878;60.672;2023-05-24T12:51:17;99054.56;;;29.06;16.35
62524;BME280;53689;56.878;60.672;2023-05-24T12:53:46;99043.78;;;29.30;16.05
62524;BME280;53689;56.878;60.672;2023-05-24T12:56:13;99048.31;;;29.37;16.15
62524;BME280;53689;56.878;60.672;2023-05-24T12:58:42;99054.13;;;29.10;16.33